Time;durP1;ratioP1;P1;durP2;ratioP2;P2;SDS_P1;SDS_P2;PMS_P1;PMS_P2;Temp;Humidity;BMP_temperature;BMP_pressure;BME280_temperature;BME280_humidity;BME280_pressure;Samples;Min_cycle;Max_cycle;Signal;HPM_P1;HPM_P2
2023/06/07 00:00:08;;;;;;;8.93;6.38;;;;;;;;;;5002780;28;20034;-67
2023/06/07 00:02:33;;;;;;;7.70;5.80;;;;;;;;;;4995256;28;20045;-68
2023/06/07 00:04:58;;;;;;;19.70;7.65;;;;;;;;;;4994701;28;20423;-67
2023/06/07 00:07:24;;;;;;;11.68;6.45;;;;;;;;;;4995907;28;20686;-67
2023/06/07 00:09:50;;;;;;;8.57;7.10;;;;;;;;;;4994959;28;20034;-68
2023/06/07 00:12:15;;;;;;;7.70;6.22;;;;;;;;;;4994312;28;20481;-67
2023/06/07 00:14:41;;;;;;;6.97;6.15;;;;;;;;;;4986717;28;20042;-68
2023/06/07 00:17:08;;;;;;;9.05;6.22;;;;;;;;;;5008778;28;20112;-68
2023/06/07 00:19:34;;;;;;;7.82;6.88;;;;;;;;;;4994997;28;20034;-68
2023/06/07 00:22:01;;;;;;;8.07;6.47;;;;;;;;;;4994715;28;20041;-67
2023/06/07 00:24:27;;;;;;;12.55;6.47;;;;;;;;;;4995525;28;20038;-68
2023/06/07 00:26:53;;;;;;;8.57;6.55;;;;;;;;;;4980950;28;20045;-67
2023/06/07 00:29:18;;;;;;;8.80;6.07;;;;;;;;;;4996024;28;20135;-68
2023/06/07 00:31:43;;;;;;;8.40;6.80;;;;;;;;;;5008329;28;20133;-68
2023/06/07 00:34:09;;;;;;;10.05;6.13;;;;;;;;;;4994583;28;20048;-67
2023/06/07 00:36:34;;;;;;;7.72;6.93;;;;;;;;;;4997079;28;20061;-68
2023/06/07 00:39:00;;;;;;;8.10;6.78;;;;;;;;;;4997242;28;20029;-68
2023/06/07 00:41:25;;;;;;;8.68;6.80;;;;;;;;;;4989476;28;20521;-67
2023/06/07 00:43:51;;;;;;;8.25;6.93;;;;;;;;;;4998305;28;20049;-67
2023/06/07 00:46:21;;;;;;;9.75;7.93;;;;;;;;;;5004726;28;20037;-68
2023/06/07 00:48:51;;;;;;;8.10;6.43;;;;;;;;;;5006203;28;20211;-68
2023/06/07 00:51:17;;;;;;;9.98;6.97;;;;;;;;;;4998899;28;20058;-68
2023/06/07 00:53:47;;;;;;;7.28;5.85;;;;;;;;;;4997255;28;20112;-68
2023/06/07 00:56:12;;;;;;;8.10;6.45;;;;;;;;;;4992426;28;20046;-68
2023/06/07 00:58:38;;;;;;;8.35;5.93;;;;;;;;;;5017090;28;20124;-67
2023/06/07 01:01:05;;;;;;;10.60;7.03;;;;;;;;;;5014874;28;20034;-67
2023/06/07 01:03:34;;;;;;;8.65;6.82;;;;;;;;;;5005559;28;20096;-68
2023/06/07 01:06:03;;;;;;;8.43;6.97;;;;;;;;;;4998180;28;20112;-68
2023/06/07 01:08:29;;;;;;;8.40;6.53;;;;;;;;;;4972661;28;20054;-67
2023/06/07 01:10:57;;;;;;;7.68;6.65;;;;;;;;;;4996798;28;20042;-68
2023/06/07 01:13:23;;;;;;;8.20;7.30;;;;;;;;;;4997756;28;20038;-68
2023/06/07 01:15:49;;;;;;;10.23;7.07;;;;;;;;;;4998128;28;20046;-68
2023/06/07 01:18:14;;;;;;;9.55;6.68;;;;;;;;;;4999053;28;20044;-67
2023/06/07 01:20:48;;;;;;;8.27;6.35;;;;;;;;;;5013677;28;20048;-67
2023/06/07 01:23:15;;;;;;;6.97;5.93;;;;;;;;;;5023852;28;20042;-68
2023/06/07 01:25:41;;;;;;;9.38;7.35;;;;;;;;;;5017567;28;20037;-67
2023/06/07 01:28:07;;;;;;;9.73;7.28;;;;;;;;;;5008959;28;20503;-67
2023/06/07 01:30:33;;;;;;;7.45;6.57;;;;;;;;;;4997693;28;20521;-67
2023/06/07 01:33:02;;;;;;;7.82;7.03;;;;;;;;;;4997165;28;20077;-67
2023/06/07 01:35:28;;;;;;;7.53;6.63;;;;;;;;;;5001342;28;20115;-67
2023/06/07 01:37:55;;;;;;;8.85;6.70;;;;;;;;;;4997346;28;20033;-67
2023/06/07 01:40:22;;;;;;;8.43;7.38;;;;;;;;;;4997742;28;20045;-67
2023/06/07 01:42:49;;;;;;;9.23;6.75;;;;;;;;;;4995980;28;20077;-67
2023/06/07 01:45:15;;;;;;;7.45;5.85;;;;;;;;;;4997656;28;20034;-68
2023/06/07 01:47:40;;;;;;;7.70;6.43;;;;;;;;;;5013759;28;20052;-66
2023/06/07 01:50:08;;;;;;;8.20;7.00;;;;;;;;;;5003980;28;20498;-66
2023/06/07 01:52:33;;;;;;;8.00;6.20;;;;;;;;;;4996556;28;20597;-67
2023/06/07 01:54:59;;;;;;;8.50;7.00;;;;;;;;;;4996016;28;20048;-68
2023/06/07 01:57:39;;;;;;;8.88;7.60;;;;;;;;;;5008979;28;20110;-66
2023/06/07 02:00:21;;;;;;;9.85;7.57;;;;;;;;;;5013671;28;20040;-66
2023/06/07 02:03:01;;;;;;;8.93;7.13;;;;;;;;;;5020648;28;20050;-68
2023/06/07 02:05:54;;;;;;;11.05;7.47;;;;;;;;;;5024754;28;20044;-66
2023/06/07 02:08:33;;;;;;;7.40;6.55;;;;;;;;;;5002021;28;20145;-66
2023/06/07 02:11:01;;;;;;;8.85;6.78;;;;;;;;;;4984202;28;20588;-68
2023/06/07 02:13:38;;;;;;;8.43;7.35;;;;;;;;;;4991915;28;20501;-68
2023/06/07 02:16:04;;;;;;;8.15;7.35;;;;;;;;;;5004994;28;20111;-67
2023/06/07 02:18:31;;;;;;;10.23;7.63;;;;;;;;;;5015679;28;20069;-69
2023/06/07 02:20:56;;;;;;;8.65;7.75;;;;;;;;;;5002032;28;20061;-68
2023/06/07 02:23:22;;;;;;;9.13;7.63;;;;;;;;;;4985658;28;20263;-69
2023/06/07 02:25:47;;;;;;;9.07;7.57;;;;;;;;;;4996867;28;20098;-69
2023/06/07 02:28:12;;;;;;;8.38;7.18;;;;;;;;;;4995259;28;20041;-69
2023/06/07 02:30:38;;;;;;;9.40;8.40;;;;;;;;;;4996898;28;20079;-68
2023/06/07 02:33:05;;;;;;;9.40;8.27;;;;;;;;;;4993024;28;20061;-67
2023/06/07 02:35:30;;;;;;;9.52;7.80;;;;;;;;;;5012405;28;20124;-67
2023/06/07 02:37:56;;;;;;;12.77;9.07;;;;;;;;;;4987628;28;20128;-67
2023/06/07 02:40:21;;;;;;;9.75;8.75;;;;;;;;;;4996699;28;20045;-67
2023/06/07 02:42:47;;;;;;;10.25;9.15;;;;;;;;;;4995498;28;20050;-67
2023/06/07 02:45:13;;;;;;;10.63;9.38;;;;;;;;;;5007041;28;20525;-67
2023/06/07 02:47:39;;;;;;;9.95;8.95;;;;;;;;;;5015495;28;20056;-67
2023/06/07 02:50:06;;;;;;;11.85;9.50;;;;;;;;;;4999331;28;20042;-67
2023/06/07 02:52:33;;;;;;;10.98;8.70;;;;;;;;;;4984898;28;20038;-67
2023/06/07 02:54:59;;;;;;;9.88;8.82;;;;;;;;;;4996010;28;20046;-68
2023/06/07 02:57:24;;;;;;;9.18;7.80;;;;;;;;;;4991204;28;20097;-69
2023/06/07 02:59:52;;;;;;;10.50;9.15;;;;;;;;;;4995116;28;20558;-69
2023/06/07 03:02:18;;;;;;;10.52;9.20;;;;;;;;;;4992679;28;20038;-69
2023/06/07 03:04:43;;;;;;;9.65;8.70;;;;;;;;;;5010065;28;20190;-70
2023/06/07 03:07:09;;;;;;;9.50;8.60;;;;;;;;;;5011742;28;20179;-70
2023/06/07 03:09:34;;;;;;;10.15;8.77;;;;;;;;;;5009605;28;20576;-69
2023/06/07 03:12:00;;;;;;;9.75;8.75;;;;;;;;;;4994758;28;20038;-69
2023/06/07 03:14:25;;;;;;;10.60;9.02;;;;;;;;;;5007424;28;20124;-68
2023/06/07 03:16:52;;;;;;;9.93;8.52;;;;;;;;;;5002630;28;20506;-69
2023/06/07 03:19:18;;;;;;;10.38;9.30;;;;;;;;;;4984707;28;20038;-69
2023/06/07 03:21:44;;;;;;;9.65;8.57;;;;;;;;;;4994938;28;20052;-69
2023/06/07 03:24:13;;;;;;;10.48;8.80;;;;;;;;;;4994919;28;20123;-69
2023/06/07 03:26:39;;;;;;;11.25;9.45;;;;;;;;;;4996149;28;20128;-69
2023/06/07 03:29:05;;;;;;;9.55;8.45;;;;;;;;;;4995774;28;20540;-68
2023/06/07 03:31:31;;;;;;;9.95;8.95;;;;;;;;;;4995729;28;20050;-68
2023/06/07 03:33:57;;;;;;;11.32;8.90;;;;;;;;;;4983881;28;20052;-68
2023/06/07 03:36:25;;;;;;;10.40;8.73;;;;;;;;;;5005105;28;20033;-68
2023/06/07 03:38:52;;;;;;;10.13;9.13;;;;;;;;;;5020574;28;20040;-68
2023/06/07 03:41:18;;;;;;;10.90;9.40;;;;;;;;;;5003713;28;20026;-68
2023/06/07 03:43:43;;;;;;;10.85;8.70;;;;;;;;;;5008029;28;20051;-68
2023/06/07 03:46:08;;;;;;;10.73;9.48;;;;;;;;;;5011683;28;20080;-68
2023/06/07 03:48:34;;;;;;;10.13;8.70;;;;;;;;;;5008526;28;20037;-68
2023/06/07 03:51:00;;;;;;;9.52;8.27;;;;;;;;;;5007457;28;20041;-68
2023/06/07 03:53:25;;;;;;;9.68;8.65;;;;;;;;;;4994919;28;20029;-68
2023/06/07 03:55:51;;;;;;;9.40;8.32;;;;;;;;;;5006152;28;20034;-67
2023/06/07 03:58:19;;;;;;;10.27;9.02;;;;;;;;;;4998415;28;20043;-68
2023/06/07 04:00:47;;;;;;;9.23;8.32;;;;;;;;;;4986211;28;20042;-68
2023/06/07 04:03:12;;;;;;;10.57;8.82;;;;;;;;;;4995343;28;20034;-68
2023/06/07 04:05:38;;;;;;;9.20;8.30;;;;;;;;;;4991097;28;20096;-68
2023/06/07 04:08:05;;;;;;;10.95;7.90;;;;;;;;;;4989163;28;20030;-68
2023/06/07 04:10:30;;;;;;;9.93;8.60;;;;;;;;;;5002129;28;20045;-68
2023/06/07 04:12:56;;;;;;;8.85;7.93;;;;;;;;;;5016880;28;20033;-68
2023/06/07 04:15:21;;;;;;;13.07;8.70;;;;;;;;;;5008848;28;20070;-68
2023/06/07 04:17:46;;;;;;;8.60;7.75;;;;;;;;;;5018970;28;20052;-68
2023/06/07 04:20:14;;;;;;;9.15;8.25;;;;;;;;;;5038459;28;20534;-68
2023/06/07 04:22:41;;;;;;;9.50;7.93;;;;;;;;;;5022685;28;20191;-68
2023/06/07 04:25:07;;;;;;;9.35;8.23;;;;;;;;;;5014368;28;20654;-68
2023/06/07 04:27:34;;;;;;;10.00;8.35;;;;;;;;;;5012804;28;20048;-67
2023/06/07 04:30:01;;;;;;;9.55;8.07;;;;;;;;;;4983963;28;20034;-68
2023/06/07 04:32:27;;;;;;;9.43;8.52;;;;;;;;;;4994609;28;20046;-68
2023/06/07 04:34:53;;;;;;;8.90;8.00;;;;;;;;;;4978777;28;20038;-68
2023/06/07 04:37:19;;;;;;;11.73;8.25;;;;;;;;;;5014575;28;20044;-68
2023/06/07 04:39:44;;;;;;;10.65;9.07;;;;;;;;;;5007821;28;20573;-68
2023/06/07 04:42:11;;;;;;;10.40;8.77;;;;;;;;;;5014044;28;20043;-68
2023/06/07 04:44:36;;;;;;;12.07;8.95;;;;;;;;;;5010729;28;20556;-69
2023/06/07 04:47:03;;;;;;;8.90;8.00;;;;;;;;;;4996006;28;20042;-68
2023/06/07 04:49:29;;;;;;;11.88;8.32;;;;;;;;;;4993372;28;21048;-68
2023/06/07 04:51:55;;;;;;;9.27;7.95;;;;;;;;;;4994884;28;20038;-69
2023/06/07 04:54:20;;;;;;;9.27;8.07;;;;;;;;;;4994058;28;20088;-68
2023/06/07 04:56:46;;;;;;;9.50;8.40;;;;;;;;;;4983910;28;20458;-68
2023/06/07 04:59:12;;;;;;;10.00;8.80;;;;;;;;;;4994349;28;20521;-69
2023/06/07 05:01:37;;;;;;;12.48;9.18;;;;;;;;;;4998677;28;20080;-69
2023/06/07 05:04:03;;;;;;;9.90;8.90;;;;;;;;;;5002385;28;20033;-68
2023/06/07 05:06:31;;;;;;;9.77;8.50;;;;;;;;;;4990036;28;20561;-68
2023/06/07 05:08:56;;;;;;;9.63;8.63;;;;;;;;;;4991398;28;20088;-70
2023/06/07 05:11:21;;;;;;;9.70;8.27;;;;;;;;;;4981143;28;20041;-68
2023/06/07 05:13:47;;;;;;;9.13;8.15;;;;;;;;;;4991209;28;20041;-67
2023/06/07 05:16:15;;;;;;;9.27;8.30;;;;;;;;;;4991895;28;20097;-68
2023/06/07 05:18:48;;;;;;;10.30;9.20;;;;;;;;;;4993557;28;20045;-69
2023/06/07 05:21:15;;;;;;;11.70;8.98;;;;;;;;;;4992764;28;20084;-68
2023/06/07 05:23:41;;;;;;;11.15;9.00;;;;;;;;;;4982261;28;20038;-68
2023/06/07 05:26:07;;;;;;;11.95;9.30;;;;;;;;;;4997171;28;20062;-68
2023/06/07 05:28:34;;;;;;;10.18;8.98;;;;;;;;;;4997560;28;20038;-67
2023/06/07 05:31:00;;;;;;;14.68;9.38;;;;;;;;;;4997156;28;20121;-67
2023/06/07 05:33:27;;;;;;;10.25;9.13;;;;;;;;;;5020752;28;20654;-68
2023/06/07 05:35:53;;;;;;;10.15;9.10;;;;;;;;;;5018842;28;20089;-68
2023/06/07 05:38:18;;;;;;;9.32;8.35;;;;;;;;;;4987838;28;20693;-68
2023/06/07 05:40:44;;;;;;;11.23;9.88;;;;;;;;;;4996703;28;20410;-68
2023/06/07 05:43:09;;;;;;;11.20;10.00;;;;;;;;;;4995451;28;20034;-69
2023/06/07 05:45:35;;;;;;;10.68;9.45;;;;;;;;;;5007306;28;20566;-69
2023/06/07 05:48:00;;;;;;;10.65;9.55;;;;;;;;;;5015933;28;20045;-68
2023/06/07 05:50:25;;;;;;;11.48;9.55;;;;;;;;;;4984183;28;20030;-67
2023/06/07 05:52:57;;;;;;;10.40;9.27;;;;;;;;;;4986343;28;20092;-67
2023/06/07 05:55:26;;;;;;;;;;;;;;;;;;4987181;28;20415;-69
2023/06/07 05:57:52;;;;;;;8.82;7.50;;;;;;;;;;5002258;28;19913;-67
2023/06/07 06:00:17;;;;;;;12.60;9.43;;;;;;;;;;4996952;28;20041;-69
2023/06/07 06:02:45;;;;;;;10.57;9.48;;;;;;;;;;5009034;28;20045;-69
2023/06/07 06:05:11;;;;;;;9.30;8.40;;;;;;;;;;5006094;28;20041;-69
2023/06/07 06:07:37;;;;;;;9.07;8.10;;;;;;;;;;5012101;28;20092;-68
2023/06/07 06:10:04;;;;;;;10.57;8.57;;;;;;;;;;5015099;28;20509;-69
2023/06/07 06:12:33;;;;;;;10.55;8.57;;;;;;;;;;5014753;28;20041;-68
2023/06/07 06:14:59;;;;;;;11.32;10.10;;;;;;;;;;5002345;28;20481;-68
2023/06/07 06:17:25;;;;;;;12.02;9.90;;;;;;;;;;4996997;28;20056;-68
2023/06/07 06:19:50;;;;;;;10.82;9.68;;;;;;;;;;5001042;28;20102;-69
2023/06/07 06:22:16;;;;;;;11.20;9.95;;;;;;;;;;5015383;28;20041;-69
2023/06/07 06:24:42;;;;;;;11.30;9.77;;;;;;;;;;4990576;28;20109;-69
2023/06/07 06:27:08;;;;;;;10.55;9.07;;;;;;;;;;4996881;28;20121;-68
2023/06/07 06:29:34;;;;;;;10.80;9.45;;;;;;;;;;4995736;28;20042;-68
2023/06/07 06:32:00;;;;;;;13.20;9.73;;;;;;;;;;5000730;28;20030;-68
2023/06/07 06:34:26;;;;;;;12.50;10.05;;;;;;;;;;4994993;28;20033;-68
2023/06/07 06:36:51;;;;;;;11.27;9.55;;;;;;;;;;4989061;28;20542;-68
2023/06/07 06:39:16;;;;;;;11.68;9.73;;;;;;;;;;4992788;28;20037;-68
2023/06/07 06:41:42;;;;;;;11.02;9.48;;;;;;;;;;4995621;28;20695;-67
2023/06/07 06:44:08;;;;;;;10.23;9.15;;;;;;;;;;4994875;28;20434;-68
2023/06/07 06:46:33;;;;;;;10.55;9.18;;;;;;;;;;4986616;28;20121;-68
2023/06/07 06:48:59;;;;;;;12.48;9.45;;;;;;;;;;4994704;28;20117;-68
2023/06/07 06:51:24;;;;;;;13.40;9.98;;;;;;;;;;4995590;28;20072;-67
2023/06/07 06:53:50;;;;;;;10.75;9.32;;;;;;;;;;5003442;28;20041;-67
2023/06/07 06:56:15;;;;;;;10.98;9.80;;;;;;;;;;4995534;28;20042;-66
2023/06/07 06:58:41;;;;;;;10.50;9.40;;;;;;;;;;4994431;28;20040;-66
2023/06/07 07:01:07;;;;;;;10.70;9.55;;;;;;;;;;5016185;28;20493;-66
2023/06/07 07:03:32;;;;;;;11.15;9.95;;;;;;;;;;5007890;28;20052;-66
2023/06/07 07:05:58;;;;;;;11.50;10.02;;;;;;;;;;5020150;28;20041;-66
2023/06/07 07:08:25;;;;;;;11.27;9.75;;;;;;;;;;5013870;28;20505;-66
2023/06/07 07:10:50;;;;;;;10.02;9.05;;;;;;;;;;5000847;28;20038;-67
2023/06/07 07:13:16;;;;;;;9.77;8.77;;;;;;;;;;4992954;28;20418;-66
2023/06/07 07:15:41;;;;;;;11.63;9.52;;;;;;;;;;4984958;28;20057;-67
2023/06/07 07:18:08;;;;;;;11.18;10.05;;;;;;;;;;4980606;28;20030;-67
2023/06/07 07:20:34;;;;;;;10.18;9.07;;;;;;;;;;4994181;28;20124;-66
2023/06/07 07:23:01;;;;;;;10.45;9.35;;;;;;;;;;4993976;28;20030;-66
2023/06/07 07:25:27;;;;;;;9.73;8.73;;;;;;;;;;4991273;28;20030;-66
2023/06/07 07:27:52;;;;;;;10.15;9.15;;;;;;;;;;5027144;28;20044;-66
2023/06/07 07:30:18;;;;;;;9.82;8.65;;;;;;;;;;4992283;28;20130;-67
2023/06/07 07:32:43;;;;;;;10.75;9.13;;;;;;;;;;5012564;28;20120;-66
2023/06/07 07:35:09;;;;;;;10.88;9.32;;;;;;;;;;5014945;28;20076;-67
2023/06/07 07:37:35;;;;;;;9.02;8.13;;;;;;;;;;5033238;28;20044;-66
2023/06/07 07:40:01;;;;;;;10.63;8.98;;;;;;;;;;5016133;28;20039;-67
2023/06/07 07:42:26;;;;;;;10.45;8.68;;;;;;;;;;5026542;28;20124;-67
2023/06/07 07:44:52;;;;;;;9.30;8.10;;;;;;;;;;5013561;28;20041;-66
2023/06/07 07:47:17;;;;;;;9.85;8.85;;;;;;;;;;5013199;28;20045;-67
2023/06/07 07:49:43;;;;;;;8.70;7.80;;;;;;;;;;5004425;28;20046;-67
2023/06/07 07:52:08;;;;;;;10.80;8.15;;;;;;;;;;4994144;28;20042;-67
2023/06/07 07:54:33;;;;;;;10.10;8.35;;;;;;;;;;5017201;28;20041;-67
2023/06/07 07:57:00;;;;;;;9.77;8.77;;;;;;;;;;5020680;28;20037;-67
2023/06/07 07:59:25;;;;;;;9.68;8.68;;;;;;;;;;5008391;28;20041;-66
2023/06/07 08:01:51;;;;;;;11.82;8.90;;;;;;;;;;5013468;28;20151;-67
2023/06/07 08:04:17;;;;;;;10.35;8.90;;;;;;;;;;5002590;28;20033;-67
2023/06/07 08:06:42;;;;;;;9.55;8.50;;;;;;;;;;4993828;28;20033;-67
2023/06/07 08:09:09;;;;;;;10.02;8.95;;;;;;;;;;4993630;28;20125;-67
2023/06/07 08:11:35;;;;;;;11.38;9.43;;;;;;;;;;4983800;28;20050;-68
2023/06/07 08:14:00;;;;;;;11.18;9.98;;;;;;;;;;4993322;28;20045;-67
2023/06/07 08:16:26;;;;;;;10.35;9.25;;;;;;;;;;4994635;28;20030;-67
2023/06/07 08:18:57;;;;;;;10.80;9.07;;;;;;;;;;4994367;28;20071;-67
2023/06/07 08:21:24;;;;;;;10.00;8.95;;;;;;;;;;5021663;28;20120;-67
2023/06/07 08:23:51;;;;;;;9.93;8.65;;;;;;;;;;5012985;28;20161;-67
2023/06/07 08:26:16;;;;;;;10.50;8.68;;;;;;;;;;4986820;28;20046;-67
2023/06/07 08:28:42;;;;;;;13.57;9.50;;;;;;;;;;5012863;28;20203;-68
2023/06/07 08:31:10;;;;;;;10.75;9.13;;;;;;;;;;5012491;28;20136;-67
2023/06/07 08:33:36;;;;;;;12.93;8.57;;;;;;;;;;5012825;28;20636;-67
2023/06/07 08:36:01;;;;;;;9.55;8.60;;;;;;;;;;5012951;28;20045;-67
2023/06/07 08:38:26;;;;;;;9.32;8.43;;;;;;;;;;4984936;28;20034;-68
2023/06/07 08:40:56;;;;;;;9.60;8.45;;;;;;;;;;5006894;28;20034;-67
2023/06/07 08:43:23;;;;;;;10.38;9.20;;;;;;;;;;4995006;28;20503;-68
2023/06/07 08:45:51;;;;;;;9.07;7.85;;;;;;;;;;4995050;28;20157;-68
2023/06/07 08:48:17;;;;;;;10.77;8.55;;;;;;;;;;5018258;28;20068;-68
2023/06/07 08:50:45;;;;;;;10.73;8.13;;;;;;;;;;5013122;28;20103;-68
2023/06/07 08:53:14;;;;;;;10.27;8.93;;;;;;;;;;4983230;28;20514;-68
2023/06/07 08:55:41;;;;;;;9.65;8.13;;;;;;;;;;4994250;28;20034;-68
2023/06/07 08:58:07;;;;;;;11.35;8.05;;;;;;;;;;5018954;28;20115;-67
2023/06/07 09:00:32;;;;;;;8.77;7.75;;;;;;;;;;5005502;28;20061;-66
2023/06/07 09:02:58;;;;;;;8.63;7.72;;;;;;;;;;4995928;28;20422;-68
2023/06/07 09:05:24;;;;;;;10.40;7.93;;;;;;;;;;4987800;28;20113;-66
2023/06/07 09:07:50;;;;;;;8.75;7.07;;;;;;;;;;4997830;28;20025;-66
2023/06/07 09:10:17;;;;;;;8.48;7.15;;;;;;;;;;4996807;28;20034;-67
2023/06/07 09:12:47;;;;;;;8.43;6.22;;;;;;;;;;4996765;28;20042;-66
2023/06/07 09:15:18;;;;;;;10.32;6.85;;;;;;;;;;4997294;28;20589;-66
2023/06/07 09:17:58;;;;;;;9.80;6.38;;;;;;;;;;4999062;28;20180;-66
2023/06/07 09:20:28;;;;;;;7.25;6.00;;;;;;;;;;4988637;28;20442;-66
2023/06/07 09:23:08;;;;;;;6.32;5.38;;;;;;;;;;4997507;28;20045;-66
2023/06/07 09:25:34;;;;;;;7.88;5.53;;;;;;;;;;5004158;28;20160;-66
2023/06/07 09:28:02;;;;;;;5.85;4.75;;;;;;;;;;5016433;28;20075;-68
2023/06/07 09:30:27;;;;;;;5.05;4.03;;;;;;;;;;4988939;28;20076;-68
2023/06/07 09:32:53;;;;;;;6.63;5.53;;;;;;;;;;4995912;28;20113;-67
2023/06/07 09:35:19;;;;;;;5.00;4.22;;;;;;;;;;4996243;28;20037;-68
2023/06/07 09:37:51;;;;;;;6.70;5.30;;;;;;;;;;5006247;28;20440;-67
2023/06/07 09:40:18;;;;;;;6.40;5.22;;;;;;;;;;5016725;28;20041;-67
2023/06/07 09:42:43;;;;;;;5.60;4.80;;;;;;;;;;5000198;28;20665;-67
2023/06/07 09:45:14;;;;;;;7.32;5.18;;;;;;;;;;4983197;28;20068;-67
2023/06/07 09:47:41;;;;;;;7.25;5.15;;;;;;;;;;5004482;28;20041;-67
2023/06/07 09:50:11;;;;;;;4.70;3.95;;;;;;;;;;5016439;28;20029;-67
2023/06/07 09:52:36;;;;;;;6.60;4.97;;;;;;;;;;5016448;28;20041;-67
2023/06/07 09:55:02;;;;;;;6.63;5.38;;;;;;;;;;5016403;28;20034;-68
2023/06/07 09:57:30;;;;;;;8.98;5.50;;;;;;;;;;5005285;28;20072;-68
2023/06/07 10:00:14;;;;;;;6.47;5.20;;;;;;;;;;4997132;28;20441;-67
2023/06/07 10:02:42;;;;;;;6.82;4.68;;;;;;;;;;4993735;28;20042;-67
2023/06/07 10:05:08;;;;;;;6.45;4.90;;;;;;;;;;4997601;28;20045;-67
2023/06/07 10:07:39;;;;;;;6.50;5.32;;;;;;;;;;4996507;28;20046;-67
2023/06/07 10:10:07;;;;;;;7.10;5.00;;;;;;;;;;4982735;28;20038;-68
2023/06/07 10:12:35;;;;;;;5.93;4.88;;;;;;;;;;4990126;28;20406;-67
2023/06/07 10:15:03;;;;;;;5.50;4.30;;;;;;;;;;4993990;28;20045;-68
2023/06/07 10:17:35;;;;;;;5.00;4.47;;;;;;;;;;4997198;28;20042;-67
2023/06/07 10:20:04;;;;;;;5.50;4.63;;;;;;;;;;4993773;28;20066;-67
2023/06/07 10:22:36;;;;;;;4.25;3.55;;;;;;;;;;4985920;28;20554;-68
2023/06/07 10:25:16;;;;;;;6.13;4.45;;;;;;;;;;4995355;28;20095;-68
2023/06/07 10:28:00;;;;;;;6.60;4.82;;;;;;;;;;4985924;28;20091;-69
2023/06/07 10:30:27;;;;;;;4.57;3.70;;;;;;;;;;4996882;28;20615;-67
2023/06/07 10:32:53;;;;;;;6.32;5.05;;;;;;;;;;4983878;28;20039;-67
2023/06/07 10:35:20;;;;;;;6.97;4.72;;;;;;;;;;4995770;28;20054;-68
2023/06/07 10:37:50;;;;;;;5.68;4.72;;;;;;;;;;4994977;28;20129;-67
2023/06/07 10:40:16;;;;;;;5.47;4.57;;;;;;;;;;4995210;28;20883;-67
2023/06/07 10:42:44;;;;;;;5.22;4.07;;;;;;;;;;5023383;28;20123;-68
2023/06/07 10:45:14;;;;;;;5.03;4.40;;;;;;;;;;5005588;28;20648;-68
2023/06/07 10:47:43;;;;;;;4.63;3.88;;;;;;;;;;5009444;28;20045;-68
2023/06/07 10:50:27;;;;;;;6.03;4.18;;;;;;;;;;4995016;28;20037;-68
2023/06/07 10:52:56;;;;;;;5.85;4.10;;;;;;;;;;4994318;28;20081;-68
2023/06/07 10:55:26;;;;;;;5.03;3.72;;;;;;;;;;4989738;28;20594;-68
2023/06/07 10:57:53;;;;;;;7.05;4.03;;;;;;;;;;4993831;28;20045;-69
2023/06/07 11:00:30;;;;;;;5.85;4.55;;;;;;;;;;4994924;28;20038;-66
2023/06/07 11:03:04;;;;;;;7.47;4.30;;;;;;;;;;4994926;28;20120;-66
2023/06/07 11:05:49;;;;;;;5.47;4.25;;;;;;;;;;4988892;28;20046;-67
2023/06/07 11:08:43;;;;;;;6.20;4.30;;;;;;;;;;5006355;28;20043;-66
2023/06/07 11:11:39;;;;;;;6.15;4.32;;;;;;;;;;5000753;28;20080;-66
2023/06/07 11:14:05;;;;;;;5.63;3.50;;;;;;;;;;4992799;28;20643;-66
2023/06/07 11:16:30;;;;;;;5.55;3.47;;;;;;;;;;4985413;28;20046;-66
2023/06/07 11:19:02;;;;;;;4.03;3.55;;;;;;;;;;4994827;28;20092;-66
2023/06/07 11:21:27;;;;;;;4.60;3.75;;;;;;;;;;4989483;28;20044;-67
2023/06/07 11:24:10;;;;;;;4.10;3.70;;;;;;;;;;4993773;28;20049;-66
2023/06/07 11:26:35;;;;;;;5.50;3.45;;;;;;;;;;4990014;28;20038;-69
2023/06/07 11:29:01;;;;;;;5.18;4.07;;;;;;;;;;5002163;28;20041;-67
2023/06/07 11:31:26;;;;;;;3.97;3.38;;;;;;;;;;5009787;28;20068;-66
2023/06/07 11:33:52;;;;;;;6.65;3.92;;;;;;;;;;4994679;28;20041;-68
2023/06/07 11:36:18;;;;;;;5.70;3.92;;;;;;;;;;4993469;28;20137;-66
2023/06/07 11:38:48;;;;;;;4.80;3.38;;;;;;;;;;4994057;28;20041;-68
2023/06/07 11:41:13;;;;;;;5.00;3.53;;;;;;;;;;4985092;28;20120;-66
2023/06/07 11:43:39;;;;;;;5.90;4.50;;;;;;;;;;4993615;28;20124;-66
2023/06/07 11:46:04;;;;;;;3.85;2.63;;;;;;;;;;4994096;28;20045;-66
2023/06/07 11:48:30;;;;;;;4.90;3.90;;;;;;;;;;5005423;28;20041;-66
2023/06/07 11:50:56;;;;;;;4.22;3.50;;;;;;;;;;5013144;28;20067;-66
2023/06/07 11:53:22;;;;;;;4.60;3.53;;;;;;;;;;4998036;28;20033;-66
2023/06/07 11:55:48;;;;;;;6.13;4.20;;;;;;;;;;4983828;28;20093;-67
2023/06/07 11:58:14;;;;;;;4.65;3.22;;;;;;;;;;4993178;28;20402;-66
2023/06/07 12:00:43;;;;;;;5.13;3.38;;;;;;;;;;5004517;28;20059;-66
2023/06/07 12:03:10;;;;;;;3.60;3.20;;;;;;;;;;5023127;28;20037;-67
2023/06/07 12:05:36;;;;;;;4.80;3.58;;;;;;;;;;4998876;28;20038;-66
2023/06/07 12:08:12;;;;;;;4.65;3.50;;;;;;;;;;4994141;28;20891;-66
2023/06/07 12:10:37;;;;;;;4.47;3.42;;;;;;;;;;4990843;28;20050;-66
2023/06/07 12:13:12;;;;;;;4.20;3.45;;;;;;;;;;5023238;28;20083;-66
2023/06/07 12:16:04;;;;;;;5.13;3.47;;;;;;;;;;5013612;28;20450;-67
2023/06/07 12:18:31;;;;;;;5.25;3.13;;;;;;;;;;4994404;28;20120;-66
2023/06/07 12:21:08;;;;;;;5.25;3.78;;;;;;;;;;4979511;28;20031;-68
2023/06/07 12:23:38;;;;;;;4.65;3.20;;;;;;;;;;4993379;28;20104;-68
2023/06/07 12:26:10;;;;;;;4.70;3.58;;;;;;;;;;5002768;28;20663;-70
2023/06/07 12:28:36;;;;;;;4.20;3.13;;;;;;;;;;5012807;28;20042;-69
2023/06/07 12:31:02;;;;;;;4.45;3.40;;;;;;;;;;5004973;28;20038;-70
2023/06/07 12:33:28;;;;;;;4.13;3.25;;;;;;;;;;4995397;28;20042;-69
2023/06/07 12:35:55;;;;;;;4.63;3.55;;;;;;;;;;4997529;28;20053;-69
2023/06/07 12:38:23;;;;;;;4.10;3.40;;;;;;;;;;4997623;28;20037;-70
2023/06/07 12:40:48;;;;;;;4.95;3.85;;;;;;;;;;4997253;28;20037;-70
2023/06/07 12:43:14;;;;;;;3.85;2.95;;;;;;;;;;4996582;28;20116;-67
2023/06/07 12:45:39;;;;;;;5.38;3.67;;;;;;;;;;4987809;28;20172;-69
2023/06/07 12:48:05;;;;;;;4.63;3.63;;;;;;;;;;4999449;28;20490;-68
2023/06/07 12:50:30;;;;;;;4.53;3.50;;;;;;;;;;4997716;28;20041;-70
2023/06/07 12:52:56;;;;;;;4.78;3.47;;;;;;;;;;4996933;28;20554;-69
2023/06/07 12:55:22;;;;;;;4.63;3.38;;;;;;;;;;4993966;28;20030;-70
2023/06/07 12:57:47;;;;;;;4.05;3.20;;;;;;;;;;4997598;28;20045;-68
2023/06/07 13:00:13;;;;;;;4.32;3.00;;;;;;;;;;5005049;28;20034;-69
2023/06/07 13:02:39;;;;;;;5.22;3.30;;;;;;;;;;5016191;28;20123;-69
2023/06/07 13:05:05;;;;;;;5.68;3.33;;;;;;;;;;5013786;28;21516;-68
2023/06/07 13:07:30;;;;;;;3.85;3.20;;;;;;;;;;5012826;28;20129;-68
2023/06/07 13:09:56;;;;;;;4.63;3.75;;;;;;;;;;5015822;28;20033;-67
2023/06/07 13:12:21;;;;;;;5.38;3.65;;;;;;;;;;4999896;28;20502;-68
2023/06/07 13:14:47;;;;;;;4.32;3.13;;;;;;;;;;5006190;28;20038;-68
2023/06/07 13:17:12;;;;;;;4.47;3.60;;;;;;;;;;5016661;28;20453;-68
2023/06/07 13:19:38;;;;;;;6.35;3.60;;;;;;;;;;5016767;28;20033;-68
2023/06/07 13:22:04;;;;;;;3.72;3.13;;;;;;;;;;5013973;28;20048;-68
2023/06/07 13:24:31;;;;;;;4.40;2.97;;;;;;;;;;5016408;28;20644;-68
2023/06/07 13:26:59;;;;;;;4.88;3.45;;;;;;;;;;5012661;28;20565;-68
2023/06/07 13:29:24;;;;;;;4.80;3.20;;;;;;;;;;5000057;28;20080;-68
2023/06/07 13:31:50;;;;;;;5.07;3.17;;;;;;;;;;5016171;28;20080;-68
2023/06/07 13:34:15;;;;;;;4.50;3.60;;;;;;;;;;5016350;28;20037;-67
2023/06/07 13:36:41;;;;;;;4.50;3.53;;;;;;;;;;5004070;28;20081;-68
2023/06/07 13:39:06;;;;;;;4.25;3.55;;;;;;;;;;4995523;28;20037;-68
2023/06/07 13:41:33;;;;;;;5.15;4.05;;;;;;;;;;4987119;28;20042;-68
2023/06/07 13:43:59;;;;;;;6.30;4.07;;;;;;;;;;4996182;28;20449;-68
2023/06/07 13:46:24;;;;;;;5.43;3.88;;;;;;;;;;4980722;28;20044;-68
2023/06/07 13:48:49;;;;;;;7.40;3.92;;;;;;;;;;4992905;28;20042;-68
2023/06/07 13:51:15;;;;;;;4.13;3.53;;;;;;;;;;4995957;28;20038;-68
2023/06/07 13:53:41;;;;;;;7.20;4.38;;;;;;;;;;5009071;28;20113;-68
2023/06/07 13:56:08;;;;;;;4.57;3.38;;;;;;;;;;4987182;28;20033;-68
2023/06/07 13:58:34;;;;;;;6.38;4.50;;;;;;;;;;4996704;28;20112;-68
2023/06/07 14:01:03;;;;;;;4.78;3.58;;;;;;;;;;5002095;28;20045;-68
2023/06/07 14:03:34;;;;;;;5.60;3.70;;;;;;;;;;5014766;28;20033;-68
2023/06/07 14:06:00;;;;;;;5.47;3.63;;;;;;;;;;4986104;28;20030;-68
2023/06/07 14:08:25;;;;;;;4.70;3.55;;;;;;;;;;4990492;28;20038;-68
2023/06/07 14:10:51;;;;;;;5.03;3.83;;;;;;;;;;4994676;28;20423;-68
2023/06/07 14:13:18;;;;;;;5.13;4.03;;;;;;;;;;4994895;28;20046;-68
2023/06/07 14:15:44;;;;;;;4.10;3.58;;;;;;;;;;5004767;28;20512;-68
2023/06/07 14:18:10;;;;;;;16.45;5.05;;;;;;;;;;5003139;28;20184;-68
2023/06/07 14:20:35;;;;;;;5.65;3.88;;;;;;;;;;5008865;28;20112;-68
2023/06/07 14:23:01;;;;;;;4.93;3.70;;;;;;;;;;4986085;28;20045;-68
2023/06/07 14:25:26;;;;;;;6.07;3.90;;;;;;;;;;4995950;28;20057;-68
2023/06/07 14:27:51;;;;;;;5.85;4.00;;;;;;;;;;4995212;28;20967;-68
2023/06/07 14:30:17;;;;;;;5.95;3.88;;;;;;;;;;4995064;28;20561;-68
2023/06/07 14:32:43;;;;;;;5.07;3.42;;;;;;;;;;4994292;28;20049;-68
2023/06/07 14:35:09;;;;;;;7.18;3.88;;;;;;;;;;5009905;28;20061;-68
2023/06/07 14:37:35;;;;;;;5.25;3.50;;;;;;;;;;4987711;28;20048;-68